createdAt,value
2022-12-23T00:01:04.830Z,9.50
2022-12-23T00:03:31.265Z,9.55
2022-12-23T00:05:57.744Z,9.57
2022-12-23T00:08:24.268Z,8.90
2022-12-23T00:10:50.616Z,9.10
2022-12-23T00:13:35.763Z,9.20
2022-12-23T00:16:02.196Z,8.35
2022-12-23T00:18:28.533Z,8.90
2022-12-23T00:20:54.857Z,8.65
2022-12-23T00:23:21.223Z,7.82
2022-12-23T00:25:47.539Z,8.50
2022-12-23T00:28:13.927Z,8.18
2022-12-23T00:30:41.733Z,8.23
2022-12-23T00:33:08.056Z,7.85
2022-12-23T00:35:34.396Z,7.95
2022-12-23T00:38:00.752Z,7.30
2022-12-23T00:40:46.004Z,7.37
2022-12-23T00:43:12.357Z,7.28
2022-12-23T00:45:38.743Z,6.70
2022-12-23T00:48:24.032Z,7.03
2022-12-23T00:50:50.365Z,6.37
2022-12-23T00:53:16.675Z,6.10
2022-12-23T00:55:43.020Z,6.12
2022-12-23T00:58:09.332Z,6.10
2022-12-23T01:00:54.755Z,5.97
2022-12-23T01:03:40.066Z,6.35
2022-12-23T01:06:06.588Z,6.47
2022-12-23T01:08:32.914Z,5.53
2022-12-23T01:10:59.224Z,5.78
2022-12-23T01:13:25.533Z,6.03
2022-12-23T01:15:51.932Z,5.47
2022-12-23T01:18:18.249Z,6.68
2022-12-23T01:20:44.742Z,6.00
2022-12-23T01:23:11.064Z,6.22
2022-12-23T01:25:37.524Z,6.03
2022-12-23T01:28:03.846Z,6.25
2022-12-23T01:30:30.184Z,6.05
2022-12-23T01:32:56.532Z,6.28
2022-12-23T01:35:22.863Z,5.80
2022-12-23T01:37:49.220Z,5.68
2022-12-23T01:40:15.748Z,5.85
2022-12-23T01:42:45.413Z,6.20
2022-12-23T01:45:11.761Z,5.60
2022-12-23T01:47:38.081Z,5.80
2022-12-23T01:50:04.421Z,5.68
2022-12-23T01:52:30.726Z,5.97
2022-12-23T01:54:57.054Z,6.18
2022-12-23T01:57:23.414Z,5.10
2022-12-23T02:00:10.501Z,6.35
2022-12-23T02:02:55.778Z,5.62
2022-12-23T02:05:22.293Z,4.87
2022-12-23T02:08:07.468Z,5.25
2022-12-23T02:10:33.773Z,5.43
2022-12-23T02:13:00.111Z,4.68
2022-12-23T02:15:45.307Z,5.47
2022-12-23T02:18:11.619Z,5.10
2022-12-23T02:20:37.940Z,4.80
2022-12-23T02:23:04.266Z,4.78
2022-12-23T02:25:30.717Z,4.78
2022-12-23T02:27:57.037Z,4.43
2022-12-23T02:30:23.367Z,4.47
2022-12-23T02:32:49.741Z,4.62
2022-12-23T02:35:16.225Z,4.50
2022-12-23T02:37:42.543Z,4.40
2022-12-23T02:40:08.841Z,4.85
2022-12-23T02:42:35.144Z,4.78
2022-12-23T02:45:01.476Z,4.37
2022-12-23T02:47:27.783Z,4.28
2022-12-23T02:49:54.110Z,4.20
2022-12-23T02:52:20.538Z,3.50
2022-12-23T02:54:46.849Z,3.90
2022-12-23T02:57:13.197Z,4.12
2022-12-23T02:59:39.567Z,3.72
2022-12-23T03:02:05.947Z,3.55
2022-12-23T03:04:32.359Z,4.15
2022-12-23T03:07:04.325Z,3.70
2022-12-23T03:09:33.625Z,3.45
2022-12-23T03:11:59.958Z,3.65
2022-12-23T03:14:26.314Z,4.00
2022-12-23T03:16:52.669Z,3.47
2022-12-23T03:19:18.969Z,3.80
2022-12-23T03:21:45.353Z,3.55
2022-12-23T03:24:11.657Z,3.62
2022-12-23T03:26:37.988Z,3.47
2022-12-23T03:29:04.299Z,3.28
2022-12-23T03:31:30.709Z,3.30
2022-12-23T03:33:57.057Z,3.40
2022-12-23T03:36:23.355Z,3.15
2022-12-23T03:38:49.683Z,3.40
2022-12-23T03:41:16.021Z,2.97
2022-12-23T03:43:48.400Z,2.80
2022-12-23T03:46:16.982Z,3.60
2022-12-23T03:48:43.332Z,3.62
2022-12-23T03:51:09.652Z,3.22
2022-12-23T03:53:35.991Z,3.10
2022-12-23T03:56:02.431Z,3.47
2022-12-23T03:58:28.752Z,3.33
2022-12-23T04:00:55.119Z,4.60
2022-12-23T04:03:21.566Z,4.82
2022-12-23T04:05:47.906Z,5.82
2022-12-23T04:08:14.259Z,7.07
2022-12-23T04:10:40.570Z,8.25
2022-12-23T04:13:06.910Z,7.18
2022-12-23T04:15:33.270Z,6.10
2022-12-23T04:17:59.605Z,5.80
2022-12-23T04:20:25.975Z,5.37
2022-12-23T04:22:52.326Z,4.53
2022-12-23T04:25:18.650Z,4.15
2022-12-23T04:27:44.965Z,4.07
2022-12-23T04:30:11.269Z,3.87
2022-12-23T04:32:37.608Z,3.87
2022-12-23T04:35:03.922Z,3.08
2022-12-23T04:37:30.232Z,3.85
2022-12-23T04:39:56.544Z,3.92
2022-12-23T04:42:22.841Z,3.40
2022-12-23T04:44:49.152Z,3.35
2022-12-23T04:47:15.482Z,4.07
2022-12-23T04:49:41.788Z,4.25
2022-12-23T04:52:08.104Z,3.85
2022-12-23T04:54:34.436Z,4.20
2022-12-23T04:57:00.851Z,4.28
2022-12-23T04:59:27.191Z,3.50
2022-12-23T05:01:53.638Z,2.62
2022-12-23T05:04:20.094Z,2.50
2022-12-23T05:06:46.433Z,2.00
2022-12-23T05:09:12.750Z,1.90
2022-12-23T05:11:42.328Z,1.65
2022-12-23T05:14:08.963Z,1.50
2022-12-23T05:16:35.345Z,0.93
2022-12-23T05:19:01.927Z,0.98
2022-12-23T05:21:28.277Z,0.85
2022-12-23T05:23:54.604Z,0.70
2022-12-23T05:26:20.896Z,1.02
2022-12-23T05:28:47.536Z,0.82
2022-12-23T05:31:13.951Z,0.60
2022-12-23T05:33:40.402Z,0.70
2022-12-23T05:36:06.858Z,0.60
2022-12-23T05:38:33.164Z,0.60
2022-12-23T05:40:59.478Z,0.60
2022-12-23T05:43:25.880Z,0.90
2022-12-23T05:45:52.284Z,0.80
2022-12-23T05:48:18.667Z,0.65
2022-12-23T05:50:44.974Z,0.70
2022-12-23T05:53:11.301Z,0.90
2022-12-23T05:55:37.600Z,0.90
2022-12-23T05:58:03.907Z,0.95
2022-12-23T06:00:30.289Z,1.37
2022-12-23T06:02:56.657Z,0.70
2022-12-23T06:05:23.177Z,0.62
2022-12-23T06:07:49.528Z,0.80
2022-12-23T06:10:15.865Z,0.90
2022-12-23T06:12:42.204Z,0.85
2022-12-23T06:15:08.524Z,1.00
2022-12-23T06:17:34.845Z,0.65
2022-12-23T06:20:01.195Z,0.70
2022-12-23T06:22:27.527Z,0.77
2022-12-23T06:24:53.946Z,0.55
2022-12-23T06:27:20.269Z,0.60
2022-12-23T06:29:46.563Z,0.62
2022-12-23T06:32:13.092Z,0.73
2022-12-23T06:34:39.480Z,0.80
2022-12-23T06:37:05.851Z,0.60
2022-12-23T06:39:32.216Z,0.60
2022-12-23T06:41:58.546Z,0.73
2022-12-23T06:44:24.878Z,0.50
2022-12-23T06:46:51.215Z,0.70
2022-12-23T06:49:17.614Z,0.70
2022-12-23T06:51:44.096Z,0.80
2022-12-23T06:54:10.763Z,0.60
2022-12-23T06:56:37.071Z,0.80
2022-12-23T06:59:03.399Z,1.08
2022-12-23T07:01:29.936Z,0.90
2022-12-23T07:03:56.341Z,0.73
2022-12-23T07:06:22.637Z,0.80
2022-12-23T07:08:48.960Z,0.80
2022-12-23T07:11:15.269Z,1.00
2022-12-23T07:13:41.576Z,0.93
2022-12-23T07:16:07.990Z,0.80
2022-12-23T07:18:34.763Z,0.90
2022-12-23T07:21:01.084Z,0.70
2022-12-23T07:23:27.386Z,0.80
2022-12-23T07:25:53.732Z,0.70
2022-12-23T07:28:20.113Z,0.60
2022-12-23T07:30:46.611Z,0.82
2022-12-23T07:33:12.924Z,0.80
2022-12-23T07:35:39.439Z,0.80
2022-12-23T07:38:05.759Z,0.75
2022-12-23T07:40:32.086Z,0.70
2022-12-23T07:42:58.424Z,1.00
2022-12-23T07:45:24.724Z,0.75
2022-12-23T07:47:51.042Z,0.70
2022-12-23T07:50:17.432Z,0.80
2022-12-23T07:52:43.742Z,0.73
2022-12-23T07:55:10.133Z,0.90
2022-12-23T07:57:38.263Z,0.90
2022-12-23T08:00:04.732Z,0.80
2022-12-23T08:02:31.177Z,1.10
2022-12-23T08:04:57.752Z,0.80
2022-12-23T08:07:24.076Z,0.93
2022-12-23T08:09:50.398Z,1.05
2022-12-23T08:12:16.716Z,0.95
2022-12-23T08:14:43.025Z,0.90
2022-12-23T08:17:09.431Z,0.90
2022-12-23T08:19:35.775Z,1.12
2022-12-23T08:22:02.088Z,1.05
2022-12-23T08:24:28.429Z,0.98
2022-12-23T08:26:54.901Z,1.02
2022-12-23T08:29:21.217Z,1.00
2022-12-23T08:31:47.528Z,1.10
2022-12-23T08:34:14.482Z,1.10
2022-12-23T08:36:40.792Z,1.00
2022-12-23T08:39:07.116Z,1.05
2022-12-23T08:41:33.515Z,0.98
2022-12-23T08:43:59.884Z,0.77
2022-12-23T08:46:26.431Z,0.80
2022-12-23T08:48:52.820Z,0.90
2022-12-23T08:51:19.185Z,0.70
2022-12-23T08:53:45.557Z,0.70
2022-12-23T08:56:11.898Z,0.90
2022-12-23T08:58:38.257Z,0.90
2022-12-23T09:01:04.623Z,0.85
2022-12-23T09:03:31.109Z,0.82
2022-12-23T09:05:57.540Z,0.90
2022-12-23T09:08:23.875Z,0.77
2022-12-23T09:10:50.210Z,0.90
2022-12-23T09:13:26.346Z,0.82
2022-12-23T09:15:57.268Z,0.60
2022-12-23T09:18:23.663Z,0.90
2022-12-23T09:20:49.996Z,0.80
2022-12-23T09:23:16.301Z,0.68
2022-12-23T09:25:42.609Z,0.90
2022-12-23T09:28:08.977Z,0.75
2022-12-23T09:30:35.371Z,0.90
2022-12-23T09:33:01.686Z,0.80
2022-12-23T09:35:28.041Z,0.62
2022-12-23T09:37:54.385Z,0.73
2022-12-23T09:40:20.852Z,0.80
2022-12-23T09:42:47.315Z,0.77
2022-12-23T09:45:13.690Z,0.90
2022-12-23T09:47:40.039Z,0.62
2022-12-23T09:50:06.644Z,0.80
2022-12-23T09:52:32.979Z,0.80
2022-12-23T09:55:00.674Z,0.73
2022-12-23T09:57:26.996Z,0.80
2022-12-23T09:59:53.345Z,0.80
2022-12-23T10:02:19.749Z,0.70
2022-12-23T10:04:46.208Z,0.70
2022-12-23T10:07:12.520Z,0.90
2022-12-23T10:09:38.907Z,0.70
2022-12-23T10:12:07.203Z,1.00
2022-12-23T10:14:33.533Z,0.90
2022-12-23T10:17:00.243Z,0.90
2022-12-23T10:19:26.576Z,0.90
2022-12-23T10:21:52.895Z,0.82
2022-12-23T10:24:19.229Z,1.08
2022-12-23T10:26:45.567Z,0.90
2022-12-23T10:29:16.924Z,0.98
2022-12-23T10:31:45.307Z,1.00
2022-12-23T10:34:11.653Z,1.10
2022-12-23T10:36:38.043Z,1.00
2022-12-23T10:39:04.371Z,0.90
2022-12-23T10:41:30.697Z,0.93
2022-12-23T10:43:56.996Z,0.90
2022-12-23T10:46:23.329Z,1.08
2022-12-23T10:48:49.690Z,1.00
2022-12-23T10:51:16.073Z,1.10
2022-12-23T10:53:42.412Z,0.95
2022-12-23T10:56:08.723Z,1.10
2022-12-23T10:58:35.043Z,1.10
2022-12-23T11:01:01.547Z,1.05
2022-12-23T11:03:28.048Z,1.10
2022-12-23T11:05:54.537Z,0.90
2022-12-23T11:08:20.866Z,1.00
2022-12-23T11:10:47.243Z,1.00
2022-12-23T11:13:14.461Z,1.00
2022-12-23T11:15:40.797Z,1.10
2022-12-23T11:18:07.768Z,1.23
2022-12-23T11:20:34.108Z,1.10
2022-12-23T11:23:02.283Z,1.25
2022-12-23T11:25:28.848Z,1.25
2022-12-23T11:27:55.179Z,1.37
2022-12-23T11:30:21.519Z,1.30
2022-12-23T11:32:47.884Z,1.02
2022-12-23T11:35:14.670Z,1.42
2022-12-23T11:37:41.027Z,1.45
2022-12-23T11:40:07.580Z,1.33
2022-12-23T11:42:33.922Z,1.48
2022-12-23T11:45:00.228Z,1.33
2022-12-23T11:47:26.587Z,1.40
2022-12-23T11:49:52.912Z,1.33
2022-12-23T11:52:19.268Z,1.15
2022-12-23T11:54:49.804Z,1.15
2022-12-23T11:57:19.270Z,1.20
2022-12-23T11:59:45.611Z,1.30
2022-12-23T12:02:11.995Z,1.40
2022-12-23T12:04:38.366Z,1.40
2022-12-23T12:07:04.781Z,1.05
2022-12-23T12:09:31.113Z,1.20
2022-12-23T12:11:57.431Z,1.30
2022-12-23T12:14:23.764Z,1.17
2022-12-23T12:16:51.521Z,1.50
2022-12-23T12:19:18.842Z,1.00
2022-12-23T12:21:45.249Z,1.00
2022-12-23T12:24:19.779Z,1.30
2022-12-23T12:26:47.171Z,1.00
2022-12-23T12:29:13.684Z,1.10
2022-12-23T12:31:40.017Z,1.15
2022-12-23T12:34:06.394Z,1.20
2022-12-23T12:36:32.746Z,1.27
2022-12-23T12:38:59.147Z,1.30
2022-12-23T12:41:25.516Z,1.10
2022-12-23T12:43:51.821Z,1.30
2022-12-23T12:46:18.234Z,1.10
2022-12-23T12:48:44.576Z,1.10
2022-12-23T12:51:10.891Z,1.33
2022-12-23T12:53:37.224Z,1.45
2022-12-23T12:56:03.544Z,1.12
2022-12-23T12:58:31.093Z,1.30
2022-12-23T13:00:57.434Z,1.42
2022-12-23T13:03:23.848Z,1.20
2022-12-23T13:05:54.062Z,1.00
2022-12-23T13:08:20.993Z,1.20
2022-12-23T13:10:47.339Z,1.30
2022-12-23T13:13:14.551Z,1.27
2022-12-23T13:15:40.886Z,1.40
2022-12-23T13:18:07.654Z,1.20
2022-12-23T13:20:34.118Z,1.30
2022-12-23T13:23:20.832Z,1.00
2022-12-23T13:25:46.913Z,1.10
2022-12-23T13:28:13.230Z,1.10
2022-12-23T13:30:39.635Z,1.12
2022-12-23T13:33:06.967Z,1.20
2022-12-23T13:35:33.927Z,1.20
2022-12-23T13:38:00.320Z,1.35
2022-12-23T13:40:26.665Z,1.33
2022-12-23T13:42:52.996Z,1.12
2022-12-23T13:45:19.317Z,1.10
2022-12-23T13:47:45.712Z,1.30
2022-12-23T13:50:12.046Z,1.37
2022-12-23T13:52:38.521Z,1.37
2022-12-23T13:55:04.844Z,1.23
2022-12-23T13:57:31.183Z,1.20
2022-12-23T14:00:04.658Z,1.35
2022-12-23T14:02:32.194Z,1.27
2022-12-23T14:04:58.774Z,1.20
2022-12-23T14:07:25.081Z,1.25
2022-12-23T14:09:51.384Z,1.20
2022-12-23T14:12:17.695Z,1.20
2022-12-23T14:14:44.049Z,1.17
2022-12-23T14:17:10.370Z,1.20
2022-12-23T14:19:36.682Z,1.20
2022-12-23T14:22:02.982Z,1.30
2022-12-23T14:24:29.307Z,1.30
2022-12-23T14:26:55.618Z,1.10
2022-12-23T14:29:21.941Z,1.12
2022-12-23T14:31:48.318Z,1.15
2022-12-23T14:34:14.690Z,1.40
2022-12-23T14:36:41.148Z,1.25
2022-12-23T14:39:07.889Z,1.62
2022-12-23T14:41:34.206Z,1.50
2022-12-23T14:44:02.857Z,1.87
2022-12-23T14:46:29.377Z,1.67
2022-12-23T14:49:15.938Z,2.00
2022-12-23T14:51:42.104Z,2.50
2022-12-23T14:54:08.412Z,3.08
2022-12-23T14:56:34.732Z,2.95
2022-12-23T14:59:01.085Z,2.83
2022-12-23T15:01:27.733Z,2.30
2022-12-23T15:04:01.051Z,2.30
2022-12-23T15:06:28.576Z,2.17
2022-12-23T15:08:54.888Z,1.70
2022-12-23T15:11:21.681Z,2.15
2022-12-23T15:13:47.992Z,2.03
2022-12-23T15:16:14.545Z,3.20
2022-12-23T15:18:40.872Z,3.30
2022-12-23T15:21:07.188Z,2.90
2022-12-23T15:23:34.000Z,3.10
2022-12-23T15:26:00.365Z,2.92
2022-12-23T15:28:26.857Z,2.83
2022-12-23T15:30:53.289Z,2.70
2022-12-23T15:33:51.994Z,3.10
2022-12-23T15:36:06.111Z,3.22
2022-12-23T15:38:32.462Z,3.20
2022-12-23T15:40:58.967Z,3.78
2022-12-23T15:43:25.483Z,3.30
2022-12-23T15:45:52.311Z,4.35
2022-12-23T15:48:18.623Z,4.30
2022-12-23T15:50:44.943Z,3.97
2022-12-23T15:53:11.295Z,3.30
2022-12-23T15:55:37.637Z,3.20
2022-12-23T15:58:03.993Z,3.55
2022-12-23T16:00:30.420Z,3.12
2022-12-23T16:03:02.514Z,3.45
2022-12-23T16:05:30.212Z,3.83
2022-12-23T16:07:56.537Z,3.55
2022-12-23T16:10:22.855Z,3.60
2022-12-23T16:12:49.157Z,3.70
2022-12-23T16:15:19.631Z,3.12
2022-12-23T16:17:45.939Z,3.37
2022-12-23T16:20:12.291Z,3.22
2022-12-23T16:22:38.619Z,3.70
2022-12-23T16:25:04.954Z,3.37
2022-12-23T16:27:31.281Z,3.40
2022-12-23T16:29:57.753Z,3.83
2022-12-23T16:32:24.154Z,4.43
2022-12-23T16:34:50.563Z,4.80
2022-12-23T16:37:16.888Z,5.97
2022-12-23T16:39:43.215Z,5.62
2022-12-23T16:42:09.574Z,5.72
2022-12-23T16:44:35.906Z,5.50
2022-12-23T16:47:02.206Z,6.22
2022-12-23T16:49:33.396Z,6.40
2022-12-23T16:52:00.428Z,5.57
2022-12-23T16:54:26.761Z,5.85
2022-12-23T16:56:53.191Z,6.40
2022-12-23T16:59:20.713Z,6.03
2022-12-23T17:01:47.283Z,6.10
2022-12-23T17:04:13.777Z,6.00
2022-12-23T17:06:40.984Z,6.87
2022-12-23T17:09:08.351Z,5.60
2022-12-23T17:11:34.665Z,6.97
2022-12-23T17:14:05.681Z,5.97
2022-12-23T17:16:33.225Z,5.85
2022-12-23T17:19:00.212Z,6.60
2022-12-23T17:21:26.572Z,6.90
2022-12-23T17:23:52.900Z,7.20
2022-12-23T17:26:19.236Z,6.75
2022-12-23T17:28:45.896Z,7.05
2022-12-23T17:31:15.403Z,6.72
2022-12-23T17:33:43.532Z,7.30
2022-12-23T17:36:09.928Z,6.65
2022-12-23T17:38:36.305Z,7.70
2022-12-23T17:41:03.340Z,8.05
2022-12-23T17:43:29.816Z,7.65
2022-12-23T17:45:56.190Z,7.93
2022-12-23T17:48:26.664Z,7.65
2022-12-23T17:50:57.605Z,8.05
2022-12-23T17:53:23.977Z,8.15
2022-12-23T17:55:50.300Z,7.68
2022-12-23T17:58:16.756Z,7.12
2022-12-23T18:00:43.281Z,7.07
2022-12-23T18:03:09.694Z,7.07
2022-12-23T18:05:36.342Z,7.82
2022-12-23T18:08:02.681Z,7.00
2022-12-23T18:10:29.095Z,6.70
2022-12-23T18:12:55.417Z,5.75
2022-12-23T18:15:21.730Z,6.25
2022-12-23T18:17:48.058Z,6.87
2022-12-23T18:20:14.383Z,6.07
2022-12-23T18:22:40.733Z,6.45
2022-12-23T18:25:07.067Z,5.90
2022-12-23T18:27:33.401Z,6.00
2022-12-23T18:29:59.746Z,6.28
2022-12-23T18:32:26.109Z,6.37
2022-12-23T18:34:52.469Z,6.65
2022-12-23T18:37:18.772Z,7.10
2022-12-23T18:39:45.116Z,6.47
2022-12-23T18:42:11.427Z,6.82
2022-12-23T18:44:37.729Z,17.73
2022-12-23T18:47:04.025Z,10.38
2022-12-23T18:49:30.381Z,8.45
2022-12-23T18:51:56.676Z,7.68
2022-12-23T18:54:22.982Z,8.77
2022-12-23T18:56:49.456Z,9.05
2022-12-23T18:59:15.791Z,8.10
2022-12-23T19:01:42.239Z,7.78
2022-12-23T19:04:08.607Z,8.00
2022-12-23T19:06:34.952Z,7.65
2022-12-23T19:09:01.251Z,8.13
2022-12-23T19:11:27.581Z,7.72
2022-12-23T19:13:53.925Z,8.07
2022-12-23T19:16:20.590Z,7.80
2022-12-23T19:18:47.030Z,9.00
2022-12-23T19:21:13.431Z,8.68
2022-12-23T19:23:39.739Z,9.98
2022-12-23T19:26:06.371Z,11.20
2022-12-23T19:28:32.708Z,9.50
2022-12-23T19:30:59.096Z,9.45
2022-12-23T19:33:25.608Z,9.60
2022-12-23T19:35:51.921Z,10.55
2022-12-23T19:38:18.243Z,9.38
2022-12-23T19:40:44.759Z,9.05
2022-12-23T19:43:11.106Z,8.68
2022-12-23T19:45:37.491Z,8.68
2022-12-23T19:48:03.896Z,8.23
2022-12-23T19:50:30.312Z,8.23
2022-12-23T19:52:56.875Z,8.85
2022-12-23T19:55:23.270Z,7.78
2022-12-23T19:57:53.386Z,7.62
2022-12-23T20:00:19.760Z,7.82
2022-12-23T20:02:46.268Z,7.20
2022-12-23T20:05:12.621Z,6.90
2022-12-23T20:07:39.165Z,7.37
2022-12-23T20:10:05.543Z,7.18
2022-12-23T20:12:31.967Z,7.10
2022-12-23T20:14:58.288Z,7.18
2022-12-23T20:17:24.609Z,7.15
2022-12-23T20:19:50.952Z,7.37
2022-12-23T20:22:17.280Z,7.82
2022-12-23T20:24:43.623Z,8.15
2022-12-23T20:27:12.503Z,8.20
2022-12-23T20:29:39.587Z,8.52
2022-12-23T20:32:05.982Z,8.52
2022-12-23T20:34:38.606Z,9.90
2022-12-23T20:37:05.737Z,9.30
2022-12-23T20:39:32.100Z,9.52
2022-12-23T20:41:58.487Z,9.55
2022-12-23T20:44:34.430Z,9.82
2022-12-23T20:47:01.848Z,9.05
2022-12-23T20:49:28.269Z,8.60
2022-12-23T20:51:54.594Z,8.63
2022-12-23T20:54:31.672Z,8.32
2022-12-23T20:56:59.426Z,8.25
2022-12-23T20:59:25.724Z,7.78
2022-12-23T21:01:52.220Z,7.57
2022-12-23T21:04:18.591Z,8.23
2022-12-23T21:06:44.972Z,7.03
2022-12-23T21:09:11.760Z,7.10
2022-12-23T21:11:38.365Z,6.95
2022-12-23T21:14:07.097Z,6.85
2022-12-23T21:16:33.887Z,7.22
2022-12-23T21:19:00.292Z,6.60
2022-12-23T21:21:26.736Z,6.65
2022-12-23T21:23:53.052Z,6.62
2022-12-23T21:26:19.408Z,6.80
2022-12-23T21:28:48.890Z,7.25
2022-12-23T21:31:15.352Z,5.80
2022-12-23T21:33:41.695Z,6.15
2022-12-23T21:36:08.090Z,6.50
2022-12-23T21:38:34.500Z,6.28
2022-12-23T21:41:00.831Z,7.03
2022-12-23T21:43:27.201Z,6.32
2022-12-23T21:45:53.525Z,5.72
2022-12-23T21:48:19.858Z,5.72
2022-12-23T21:50:46.192Z,5.85
2022-12-23T21:53:12.674Z,4.82
2022-12-23T21:55:38.982Z,5.32
2022-12-23T21:58:05.296Z,5.12
2022-12-23T22:00:31.647Z,5.10
2022-12-23T22:02:58.016Z,5.50
2022-12-23T22:05:24.351Z,5.82
2022-12-23T22:07:50.653Z,5.25
2022-12-23T22:10:16.958Z,5.37
2022-12-23T22:12:43.268Z,5.15
2022-12-23T22:15:11.643Z,5.65
2022-12-23T22:17:38.362Z,6.28
2022-12-23T22:20:04.677Z,5.45
2022-12-23T22:22:30.998Z,5.55
2022-12-23T22:24:57.329Z,4.97
2022-12-23T22:27:23.637Z,5.35
2022-12-23T22:29:49.949Z,5.28
2022-12-23T22:32:16.302Z,5.53
2022-12-23T22:34:42.607Z,5.45
2022-12-23T22:37:08.912Z,5.28
2022-12-23T22:39:35.249Z,5.50
2022-12-23T22:42:01.570Z,6.03
2022-12-23T22:44:27.881Z,5.30
2022-12-23T22:46:54.218Z,5.43
2022-12-23T22:49:20.605Z,5.37
2022-12-23T22:51:46.965Z,5.55
2022-12-23T22:54:13.339Z,5.03
2022-12-23T22:56:39.718Z,3.40
2022-12-23T22:59:06.053Z,3.12
2022-12-23T23:01:32.401Z,2.45
2022-12-23T23:03:58.761Z,2.53
2022-12-23T23:06:25.148Z,2.37
2022-12-23T23:08:51.459Z,1.83
2022-12-23T23:11:17.779Z,1.50
2022-12-23T23:13:44.098Z,0.98
2022-12-23T23:16:10.592Z,0.93
2022-12-23T23:18:39.382Z,1.02
2022-12-23T23:21:05.836Z,0.85
2022-12-23T23:23:32.185Z,0.90
2022-12-23T23:25:58.534Z,0.70
2022-12-23T23:28:24.845Z,0.90
2022-12-23T23:31:09.780Z,1.00
2022-12-23T23:33:37.672Z,1.65
2022-12-23T23:36:04.031Z,1.30
2022-12-23T23:38:30.390Z,1.10
2022-12-23T23:40:56.725Z,1.00
2022-12-23T23:43:23.070Z,1.00
2022-12-23T23:45:49.563Z,1.17
2022-12-23T23:48:16.303Z,1.42
2022-12-23T23:50:42.609Z,1.25
2022-12-23T23:53:08.957Z,1.20
2022-12-23T23:55:35.282Z,1.48
2022-12-23T23:58:01.666Z,1.40
